FAWB/PRY METAR and TAF weather

Enter ICAO airport designator
Station Type Date Time Source
FAWB METAR 2021/09/24 06:00 UTC NOAA

FAWB 240600Z AUTO 09003KT //// // ////// 18/04 Q1024


Station Type Date Time Source
FAWB Decoded METAR 2021/09/24 06:00 UTC NOAA

Wonderboom / Pretoria, South Africa (FAWB) 25-39S 028-13E
Sep 24, 2021 - 02:00 AM EDT / 2021.09.24 0600 UTC
Wind: from the E (090 degrees) at 3 MPH (3 KT):0
Temperature: 64 F (18 C)
Dew Point: 39 F (4 C)
Relative Humidity: 39%
Pressure (altimeter): 30.24 in. Hg (1024 hPa)
ob: FAWB 240600Z AUTO 09003KT //// // ////// 18/04 Q1024
cycle: 6

Station Type Date Time Source
FAWB TAF 2021/05/05 07:00 UTC NOAA

TAF FAWB 050608Z 0507/0518 VRB03KT CAVOK TX24/0512Z TN15/0518Z

Example: see airport list